Flugplatz Dankern

DE-0195 · 下萨克森, 德国

使用的METAR站距离机场53 km。
罗盘
风向 的 风向 的 风向 到 风向 360° Flugplatz Dankern 10/28
风: 14 kt, 4 beaufort

2 kt

14 kt
改变
0 ft 1.000 2.000 3.000 4.000 5.000
Cloud Cloud
FEW 1.500
Cloud Cloud Cloud Cloud Cloud Cloud
BKN 2.800
Cloud Cloud Cloud Cloud Cloud Cloud
BKN 3.300
METAR EHGG 241255Z AUTO 36014KT 310V050 9999 -RA FEW015 BKN028 BKN033 06/03 Q1005 TEMPO 7000 -SHRA FEW018CB

METAR Flugplatz Dankern - DE-0195

Flugplatz Dankern是,德国中的小机场。 该机场位于纬度52,80233和经度7,16031。 该机场有一条跑道: 10/28. 这个机场没有ICAO代码,我们使用DE-0195作为参考。 机场在Amsterdam FIR中。

该航空气象观测是针对Groningen Airport Eelde在2024年4月24日 14:55, 当地时间进行的。

机场观察

风向为360°,速度为14 kt。 风向在310°和050°之间变化。

可见度为10 km 或者更多。

有几云在1.500 ft的高度, 碎云在2.800 ft的高度 和 碎云在3.300 ft的高度。 破损或更高的上限为2.800 ft。

当前天气为光 雨。 温度为6 °C,阵风为0 °C。 露点为3 °C,相对湿度为81%。 海平面上的气压为1005 hPa (QNH)。

发展趋势

  • 暂时的

    可变方向的风很小或没有。 可见性变为7 km。 重大天气:光 阵雨 雨。 几云 积雨云在1.800 ft的高度.

白天

今天,太阳从06:11升起,在20:46降落。 这适用于Flugplatz Dankern,世界夏令时可能有所不同。 当地时间与世界标准时间之间的时差为+2 小时。 夏令时目前正在进行中。

公司介绍

我们没有关于这个机场的公司信息。

体会

到Vliegles.nl去找飞行课程,跳伞和其他飞行体验。 浏览页面,了解Flugplatz Dankern附近所有可用的活动。 你也可以使用搜索功能来寻找你所在地附近的特定飞行课程、跳伞或其他飞行体验。

跑道

Id 标题 侧风 逆风 侧风 %
10/28 097°-277° 14 kt 2 kt 99 %

逆风成分最大的方向会被突出显示,并用于横风计算。 这并不一定意味着这个方向在使用。

乌云

1.500 ft FEW 几云
2.800 ft BKN 碎云
3.300 ft BKN 碎云
1.800 ft FEW 暂时的 几云 积雨云

温度 & 天气

天气 光 雨
温度 6 °C
露点 3 °C
相对湿度 81%
风寒 0 °C
Kp-index 0 (0-9)

白天

日出
06:13
中午
13:31
日落
20:50 (5:47)

小工具

你想在你的网站上有一个关于Flugplatz Dankern的当前航空天气(METAR)的小部件吗?

显示HTML代码
报告变更